createdAt,value
2018-06-08T00:04:36.953Z,38.51
2018-06-08T00:09:29.857Z,38.28
2018-06-08T00:14:23.378Z,38.78
2018-06-08T00:19:16.316Z,38.55
2018-06-08T00:24:09.212Z,38.80
2018-06-08T00:29:02.089Z,38.67
2018-06-08T00:33:54.991Z,39.53
2018-06-08T00:38:47.811Z,39.95
2018-06-08T00:43:40.751Z,40.18
2018-06-08T00:48:33.601Z,39.33
2018-06-08T00:53:26.461Z,40.01
2018-06-08T00:58:19.420Z,40.34
2018-06-08T01:03:12.300Z,40.37
2018-06-08T01:08:05.299Z,40.45
2018-06-08T01:12:58.185Z,40.93
2018-06-08T01:17:51.051Z,40.89
2018-06-08T01:22:43.960Z,41.33
2018-06-08T01:27:36.808Z,40.84
2018-06-08T01:32:29.673Z,41.46
2018-06-08T01:37:22.505Z,40.96
2018-06-08T01:42:15.421Z,41.53
2018-06-08T01:47:08.319Z,41.45
2018-06-08T01:52:01.215Z,41.06
2018-06-08T01:56:54.162Z,41.84
2018-06-08T02:01:47.079Z,42.13
2018-06-08T02:06:39.973Z,42.20
2018-06-08T02:11:32.961Z,41.76
2018-06-08T02:16:25.879Z,41.39
2018-06-08T02:21:18.761Z,41.64
2018-06-08T02:26:11.830Z,42.09
2018-06-08T02:31:04.706Z,42.55
2018-06-08T02:35:57.574Z,42.77
2018-06-08T02:40:50.525Z,42.61
2018-06-08T02:45:43.498Z,42.12
2018-06-08T02:50:36.405Z,43.09
2018-06-08T02:55:29.325Z,42.44
2018-06-08T03:00:22.254Z,42.74
2018-06-08T03:05:15.129Z,43.09
2018-06-08T03:10:08.078Z,43.40
2018-06-08T03:15:01.049Z,43.63
2018-06-08T03:19:53.975Z,43.29
2018-06-08T03:24:46.853Z,43.65
2018-06-08T03:29:39.794Z,44.46
2018-06-08T03:34:32.650Z,43.95
2018-06-08T03:39:25.461Z,44.30
2018-06-08T03:44:18.316Z,44.04
2018-06-08T03:49:11.102Z,44.44
2018-06-08T03:54:04.034Z,44.57
2018-06-08T03:58:57.039Z,44.76
2018-06-08T04:03:49.900Z,44.42
2018-06-08T04:08:42.779Z,43.93
2018-06-08T04:13:35.644Z,44.73
2018-06-08T04:18:28.496Z,44.87
2018-06-08T04:23:21.376Z,44.75
2018-06-08T04:28:14.224Z,44.13
2018-06-08T04:33:07.173Z,45.35
2018-06-08T04:38:01.157Z,44.94
2018-06-08T04:42:54.233Z,44.75
2018-06-08T04:47:47.261Z,44.79
2018-06-08T04:52:40.231Z,44.08
2018-06-08T04:57:33.070Z,44.31
2018-06-08T05:02:25.953Z,44.01
2018-06-08T05:07:18.935Z,44.12
2018-06-08T05:12:12.177Z,44.68
2018-06-08T05:17:05.079Z,44.83
2018-06-08T05:21:58.090Z,44.30
2018-06-08T05:26:51.118Z,44.43
2018-06-08T05:31:44.054Z,45.00
2018-06-08T05:36:36.994Z,45.10
2018-06-08T05:41:30.150Z,45.58
2018-06-08T05:46:23.264Z,45.95
2018-06-08T05:51:16.183Z,45.26
2018-06-08T05:56:09.066Z,45.65
2018-06-08T06:01:02.032Z,45.26
2018-06-08T06:05:54.962Z,44.96
2018-06-08T06:10:47.920Z,45.20
2018-06-08T06:15:41.068Z,45.33
2018-06-08T06:20:33.912Z,44.89
2018-06-08T06:25:26.791Z,45.13
2018-06-08T06:30:19.710Z,45.07
2018-06-08T06:35:12.582Z,44.56
2018-06-08T06:40:05.782Z,45.15
2018-06-08T06:44:58.668Z,45.22
2018-06-08T06:49:51.585Z,45.28
2018-06-08T06:54:44.511Z,45.63
2018-06-08T06:59:37.021Z,44.83
2018-06-08T07:04:29.741Z,44.58
2018-06-08T07:09:22.574Z,44.86
2018-06-08T07:14:15.838Z,44.36
2018-06-08T07:19:08.766Z,44.35
2018-06-08T07:24:01.843Z,44.75
2018-06-08T07:28:54.855Z,42.67
2018-06-08T07:33:47.958Z,40.75
2018-06-08T07:38:40.987Z,38.13
2018-06-08T07:43:33.850Z,36.90
2018-06-08T07:48:26.720Z,34.83
2018-06-08T07:53:19.581Z,33.45
2018-06-08T07:58:12.487Z,32.42
2018-06-08T08:03:05.653Z,32.37
2018-06-08T08:07:58.574Z,31.03
2018-06-08T08:12:51.429Z,30.47
2018-06-08T08:17:44.364Z,30.74
2018-06-08T08:22:37.313Z,29.49
2018-06-08T08:27:30.269Z,28.83
2018-06-08T08:32:23.542Z,29.65
2018-06-08T08:37:16.446Z,29.49
2018-06-08T08:42:09.441Z,29.25
2018-06-08T08:47:02.425Z,28.26
2018-06-08T08:51:55.461Z,28.40
2018-06-08T08:56:48.280Z,28.55
2018-06-08T09:01:41.181Z,28.14
2018-06-08T09:06:34.265Z,26.86
2018-06-08T09:11:27.315Z,27.34
2018-06-08T09:16:20.148Z,26.38
2018-06-08T09:21:14.127Z,27.81
2018-06-08T09:26:06.957Z,26.68
2018-06-08T09:30:59.790Z,26.19
2018-06-08T09:35:52.794Z,25.91
2018-06-08T09:40:45.669Z,25.40
2018-06-08T09:45:38.589Z,25.47
2018-06-08T09:50:31.605Z,25.87
2018-06-08T09:55:24.522Z,26.52
2018-06-08T10:00:23.227Z,26.79
2018-06-08T10:05:16.075Z,25.84
2018-06-08T10:10:08.961Z,26.70
2018-06-08T10:15:01.850Z,26.79
2018-06-08T10:19:54.806Z,25.69
2018-06-08T10:24:47.709Z,25.08
2018-06-08T10:29:40.562Z,25.41
2018-06-08T10:34:33.473Z,25.03
2018-06-08T10:39:26.387Z,25.90
2018-06-08T10:44:19.300Z,24.98
2018-06-08T10:49:12.149Z,25.26
2018-06-08T10:54:05.239Z,24.26
2018-06-08T10:58:58.160Z,23.67
2018-06-08T11:03:51.051Z,24.31
2018-06-08T11:08:43.916Z,24.60
2018-06-08T11:13:36.846Z,23.65
2018-06-08T11:18:29.802Z,23.64
2018-06-08T11:23:22.657Z,23.63
2018-06-08T11:28:15.517Z,23.86
2018-06-08T11:33:08.426Z,23.05
2018-06-08T11:38:01.460Z,22.46
2018-06-08T11:42:54.374Z,22.63
2018-06-08T11:47:47.312Z,22.37
2018-06-08T11:52:40.549Z,22.21
2018-06-08T11:57:33.385Z,21.85
2018-06-08T12:02:26.235Z,21.91
2018-06-08T12:07:19.272Z,21.84
2018-06-08T12:12:12.134Z,21.00
2018-06-08T12:17:05.073Z,21.65
2018-06-08T12:21:57.918Z,21.01
2018-06-08T12:26:50.738Z,20.42
2018-06-08T12:31:43.613Z,20.50
2018-06-08T12:36:36.528Z,20.07
2018-06-08T12:41:29.312Z,21.09
2018-06-08T12:46:22.218Z,20.59
2018-06-08T12:51:15.866Z,20.64
2018-06-08T12:56:08.710Z,20.66
2018-06-08T13:01:01.653Z,20.08
2018-06-08T13:05:54.541Z,20.00
2018-06-08T13:10:47.493Z,19.29
2018-06-08T13:15:40.569Z,20.24
2018-06-08T13:20:33.448Z,20.03
2018-06-08T13:25:26.238Z,20.95
2018-06-08T13:30:19.170Z,20.89
2018-06-08T13:35:12.041Z,19.95
2018-06-08T13:40:04.974Z,19.67
2018-06-08T13:44:58.029Z,20.53
2018-06-08T13:49:51.034Z,19.39
2018-06-08T13:54:43.792Z,19.62
2018-06-08T13:59:36.699Z,19.35
2018-06-08T14:04:29.605Z,18.00
2018-06-08T14:09:22.583Z,18.40
2018-06-08T14:14:15.549Z,18.59
2018-06-08T14:19:08.479Z,19.63
2018-06-08T14:24:01.369Z,19.21
2018-06-08T14:28:54.334Z,19.23
2018-06-08T14:33:47.308Z,18.93
2018-06-08T14:38:40.271Z,20.42
2018-06-08T14:43:33.209Z,19.02
2018-06-08T14:48:26.149Z,19.99
2018-06-08T14:53:19.107Z,19.92
2018-06-08T14:58:12.127Z,20.18
2018-06-08T15:03:05.660Z,20.32
2018-06-08T15:07:58.559Z,20.91
2018-06-08T15:12:51.673Z,21.27
2018-06-08T15:17:44.603Z,21.72
2018-06-08T15:22:37.453Z,21.15
2018-06-08T15:27:30.292Z,21.16
2018-06-08T15:32:23.140Z,21.71
2018-06-08T15:37:16.043Z,21.93
2018-06-08T15:42:08.904Z,21.65
2018-06-08T15:47:01.917Z,21.80
2018-06-08T15:51:54.772Z,21.76
2018-06-08T15:56:47.779Z,22.11
2018-06-08T16:01:40.642Z,23.00
2018-06-08T16:06:33.574Z,22.10
2018-06-08T16:11:26.475Z,22.18
2018-06-08T16:16:19.450Z,22.51
2018-06-08T16:21:12.315Z,22.32
2018-06-08T16:26:05.427Z,22.75
2018-06-08T16:30:58.369Z,22.91
2018-06-08T16:35:51.222Z,23.83
2018-06-08T16:40:44.123Z,23.21
2018-06-08T16:45:37.250Z,23.08
2018-06-08T16:50:30.199Z,23.48
2018-06-08T16:55:23.060Z,23.75
2018-06-08T17:00:16.006Z,22.72
2018-06-08T17:05:08.924Z,22.91
2018-06-08T17:10:01.906Z,22.98
2018-06-08T17:14:54.823Z,23.59
2018-06-08T17:19:47.772Z,23.23
2018-06-08T17:24:40.645Z,23.10
2018-06-08T17:29:33.510Z,23.89
2018-06-08T17:34:26.453Z,23.75
2018-06-08T17:39:19.257Z,23.26
2018-06-08T17:44:12.192Z,23.97
2018-06-08T17:49:05.075Z,24.16
2018-06-08T17:53:58.150Z,24.03
2018-06-08T17:58:51.245Z,23.68
2018-06-08T18:03:44.161Z,24.86
2018-06-08T18:08:37.073Z,24.97
2018-06-08T18:13:29.894Z,24.63
2018-06-08T18:18:22.740Z,24.18
2018-06-08T18:23:15.566Z,25.00
2018-06-08T18:28:08.638Z,24.76
2018-06-08T18:33:01.748Z,25.77
2018-06-08T18:37:54.651Z,25.95
2018-06-08T18:42:47.616Z,25.94
2018-06-08T18:47:40.585Z,26.45
2018-06-08T18:52:33.586Z,26.86
2018-06-08T18:57:27.065Z,26.41
2018-06-08T19:02:20.466Z,27.51
2018-06-08T19:07:13.297Z,27.65
2018-06-08T19:12:06.324Z,27.13
2018-06-08T19:16:59.232Z,28.49
2018-06-08T19:21:52.169Z,27.96
2018-06-08T19:26:45.101Z,28.63
2018-06-08T19:31:37.948Z,28.25
2018-06-08T19:36:30.922Z,28.31
2018-06-08T19:41:23.842Z,29.29
2018-06-08T19:46:16.695Z,29.56
2018-06-08T19:51:09.641Z,28.64
2018-06-08T19:56:02.578Z,29.79
2018-06-08T20:00:55.485Z,29.27
2018-06-08T20:05:48.401Z,29.47
2018-06-08T20:10:41.598Z,29.71
2018-06-08T20:15:34.548Z,29.89
2018-06-08T20:20:27.407Z,31.01
2018-06-08T20:25:20.273Z,30.88
2018-06-08T20:30:13.166Z,30.83
2018-06-08T20:35:06.052Z,31.22
2018-06-08T20:39:59.006Z,31.31
2018-06-08T20:44:51.779Z,31.57
2018-06-08T20:49:44.625Z,31.67
2018-06-08T20:54:37.825Z,31.91
2018-06-08T20:59:30.687Z,32.39
2018-06-08T21:04:23.553Z,32.21
2018-06-08T21:09:16.523Z,33.80
2018-06-08T21:14:09.430Z,34.08
2018-06-08T21:19:02.322Z,34.27
2018-06-08T21:23:55.256Z,33.94
2018-06-08T21:28:48.270Z,34.04
2018-06-08T21:33:41.144Z,35.06
2018-06-08T21:38:33.966Z,34.95
2018-06-08T21:43:26.916Z,35.44
2018-06-08T21:48:19.757Z,35.36
2018-06-08T21:53:12.637Z,35.80
2018-06-08T21:58:05.502Z,35.37
2018-06-08T22:02:58.425Z,35.72
2018-06-08T22:07:51.283Z,36.26
2018-06-08T22:12:44.335Z,36.47
2018-06-08T22:17:37.247Z,36.31
2018-06-08T22:22:30.155Z,37.09
2018-06-08T22:27:23.013Z,37.42
2018-06-08T22:32:15.812Z,37.17
2018-06-08T22:37:08.732Z,37.45
2018-06-08T22:42:01.601Z,37.01
2018-06-08T22:46:54.463Z,37.99
2018-06-08T22:51:47.423Z,37.37
2018-06-08T22:56:40.338Z,37.44
2018-06-08T23:01:33.261Z,38.21
2018-06-08T23:06:26.168Z,38.34
2018-06-08T23:11:18.968Z,38.26
2018-06-08T23:16:11.985Z,38.69
2018-06-08T23:21:05.115Z,38.42
2018-06-08T23:25:58.031Z,38.18
2018-06-08T23:30:50.837Z,37.77
2018-06-08T23:35:43.687Z,38.56
2018-06-08T23:40:36.542Z,38.54
2018-06-08T23:45:29.434Z,39.45
2018-06-08T23:50:22.377Z,39.59
2018-06-08T23:55:15.211Z,39.45
